Time;durP1;ratioP1;P1;durP2;ratioP2;P2;SDS_P1;SDS_P2;PMS_P1;PMS_P2;Temp;Humidity;BMP_temperature;BMP_pressure;BME280_temperature;BME280_humidity;BME280_pressure;Samples;Min_cycle;Max_cycle;Signal;HPM_P1;HPM_P2
2022/04/11 00:01:58;;;;;;;9.77;8.70;;;;;;;1.73;84.46;100722.84;5078951;28;20507;-68
2022/04/11 00:04:26;;;;;;;14.17;9.57;;;;;;;1.73;84.61;100730.78;5069553;28;20971;-68
2022/04/11 00:06:53;;;;;;;15.63;9.67;;;;;;;1.85;84.80;100722.28;5077797;28;20476;-67
2022/04/11 00:09:19;;;;;;;12.70;9.57;;;;;;;1.83;84.84;100724.13;5080151;28;20472;-68
2022/04/11 00:11:46;;;;;;;12.40;9.73;;;;;;;1.74;84.83;100727.22;5079530;28;20507;-68
2022/04/11 00:14:15;;;;;;;12.57;9.53;;;;;;;1.74;84.95;100721.94;5079938;28;20456;-68
2022/04/11 00:16:42;;;;;;;11.47;9.87;;;;;;;1.81;85.24;100723.34;5079109;28;20466;-67
2022/04/11 00:19:09;;;;;;;13.10;9.43;;;;;;;1.87;85.41;100717.81;5078898;28;20448;-68
2022/04/11 00:21:38;;;;;;;15.10;11.07;;;;;;;1.92;85.16;100722.00;5079540;28;20550;-67
2022/04/11 00:24:05;;;;;;;12.00;9.33;;;;;;;1.90;85.07;100711.53;5061014;28;20482;-67
2022/04/11 00:26:32;;;;;;;12.83;10.00;;;;;;;1.83;84.97;100715.38;5078934;28;20491;-67
2022/04/11 00:29:01;;;;;;;12.37;9.40;;;;;;;1.67;84.70;100713.47;5080241;28;20508;-67
2022/04/11 00:31:29;;;;;;;12.03;9.50;;;;;;;1.57;84.57;100712.19;5075993;28;20475;-68
2022/04/11 00:33:56;;;;;;;15.60;11.00;;;;;;;1.64;85.03;100713.59;5078999;28;21010;-68
2022/04/11 00:36:23;;;;;;;11.43;9.00;;;;;;;1.64;84.89;100715.41;5079321;28;20474;-68
2022/04/11 00:38:51;;;;;;;13.03;9.90;;;;;;;1.60;85.12;100721.75;5079717;28;20437;-67
2022/04/11 00:41:20;;;;;;;10.20;8.67;;;;;;;1.64;85.16;100704.84;5046676;28;20480;-67
2022/04/11 00:43:47;;;;;;;13.47;10.37;;;;;;;1.54;85.02;100712.31;5079567;28;20460;-68
2022/04/11 00:46:16;;;;;;;13.93;9.63;;;;;;;1.48;84.88;100704.72;5054172;28;20472;-67
2022/04/11 00:48:43;;;;;;;11.47;9.43;;;;;;;1.40;84.74;100705.06;5074190;28;20769;-67
2022/04/11 00:51:11;;;;;;;17.30;10.70;;;;;;;1.38;84.63;100704.28;5078434;28;20475;-67
2022/04/11 00:53:40;;;;;;;13.13;9.33;;;;;;;1.37;84.87;100702.59;5079200;28;20436;-68
2022/04/11 00:56:12;;;;;;;11.77;9.20;;;;;;;1.37;85.17;100699.09;5082477;28;20472;-67
2022/04/11 00:58:39;;;;;;;15.80;9.63;;;;;;;1.35;85.11;100699.16;5083907;28;20977;-67
2022/04/11 01:01:06;;;;;;;12.20;9.60;;;;;;;1.38;85.18;100699.00;5077235;28;20505;-67
2022/04/11 01:03:36;;;;;;;13.97;10.60;;;;;;;1.45;85.18;100702.22;5083425;28;20737;-67
2022/04/11 01:06:03;;;;;;;13.27;9.47;;;;;;;1.45;85.15;100702.22;5082687;28;20471;-67
2022/04/11 01:08:30;;;;;;;12.90;10.23;;;;;;;1.41;85.18;100704.16;5083555;28;20853;-67
2022/04/11 01:10:59;;;;;;;11.93;9.53;;;;;;;1.34;85.21;100702.72;5082417;28;20525;-67
2022/04/11 01:13:27;;;;;;;13.00;10.00;;;;;;;1.32;85.27;100707.22;5083358;28;20470;-67
2022/04/11 01:15:55;;;;;;;11.97;9.57;;;;;;;1.36;85.54;100702.66;5082300;28;20472;-67
2022/04/11 01:18:22;;;;;;;14.87;10.17;;;;;;;1.38;85.67;100706.06;5082853;28;20505;-67
2022/04/11 01:20:51;;;;;;;12.60;11.07;;;;;;;1.31;85.63;100710.75;5082226;28;20699;-67
2022/04/11 01:23:19;;;;;;;16.70;10.03;;;;;;;1.40;85.93;100705.06;5078908;28;20476;-68
2022/04/11 01:25:50;;;;;;;15.17;11.83;;;;;;;1.55;86.11;100698.22;5082810;28;20490;-67
2022/04/11 01:28:18;;;;;;;15.80;11.70;;;;;;;1.50;86.13;100703.72;5083020;28;20473;-67
2022/04/11 01:30:45;;;;;;;13.93;11.73;;;;;;;1.47;86.05;100700.38;5081127;28;20471;-66
2022/04/11 01:33:16;;;;;;;14.87;12.40;;;;;;;1.36;86.52;100694.75;5082523;28;20458;-67
2022/04/11 01:35:43;;;;;;;15.17;11.40;;;;;;;1.45;86.61;100699.59;5082151;28;20999;-67
2022/04/11 01:38:13;;;;;;;18.00;11.83;;;;;;;1.46;86.35;100696.88;5077167;28;20463;-67
2022/04/11 01:40:49;;;;;;;12.50;9.43;;;;;;;1.39;86.04;100695.47;5082269;28;20521;-67
2022/04/11 01:43:16;;;;;;;11.30;10.10;;;;;;;1.29;86.04;100694.19;5082527;28;20497;-67
2022/04/11 01:45:43;;;;;;;15.43;11.77;;;;;;;1.24;86.21;100689.09;5081688;28;20459;-67
2022/04/11 01:48:10;;;;;;;15.23;11.73;;;;;;;1.21;86.47;100678.72;5081878;28;20537;-67
2022/04/11 01:50:36;;;;;;;13.23;11.20;;;;;;;1.21;86.86;100686.59;5081350;28;20475;-67
2022/04/11 01:53:07;;;;;;;14.50;11.00;;;;;;;1.19;86.66;100690.25;5082463;28;20444;-67
2022/04/11 01:55:34;;;;;;;14.00;10.77;;;;;;;1.13;86.72;100686.13;5081538;28;20830;-67
2022/04/11 01:58:02;;;;;;;14.27;11.40;;;;;;;1.17;86.67;100686.84;5082247;28;20455;-67
2022/04/11 02:00:29;;;;;;;15.73;11.40;;;;;;;1.18;86.53;100678.88;5073912;28;20460;-67
2022/04/11 02:02:55;;;;;;;13.50;10.90;;;;;;;1.09;86.65;100685.41;5081755;28;20456;-67
2022/04/11 02:05:22;;;;;;;15.60;12.20;;;;;;;0.93;86.20;100679.97;5081493;28;20459;-67
2022/04/11 02:07:49;;;;;;;16.27;10.43;;;;;;;0.89;86.50;100681.03;5082366;28;20452;-67
2022/04/11 02:10:16;;;;;;;16.70;11.97;;;;;;;0.90;86.50;100676.59;5081835;28;20468;-66
2022/04/11 02:12:43;;;;;;;17.60;13.70;;;;;;;0.98;87.11;100690.28;5082456;28;20494;-67
2022/04/11 02:15:12;;;;;;;14.33;10.93;;;;;;;1.03;87.12;100685.69;5052349;28;20523;-66
2022/04/11 02:17:41;;;;;;;16.70;11.90;;;;;;;1.11;87.15;100680.94;5082032;28;21050;-67
2022/04/11 02:20:11;;;;;;;14.03;11.30;;;;;;;1.05;86.89;100683.81;5065330;28;20436;-68
2022/04/11 02:22:45;;;;;;;12.87;10.73;;;;;;;1.00;86.89;100679.69;5082027;28;20479;-66
2022/04/11 02:25:15;;;;;;;13.47;10.87;;;;;;;0.90;86.50;100671.34;5080243;28;20482;-67
2022/04/11 02:27:42;;;;;;;13.03;10.13;;;;;;;0.83;86.33;100680.44;5081445;28;20494;-67
2022/04/11 02:30:12;;;;;;;12.50;10.77;;;;;;;0.80;86.27;100672.66;5080772;28;20977;-67
2022/04/11 02:32:38;;;;;;;15.83;12.07;;;;;;;0.76;86.11;100671.94;5081095;28;20448;-66
2022/04/11 02:35:08;;;;;;;16.30;11.37;;;;;;;0.86;86.35;100677.69;5082218;28;20471;-67
2022/04/11 02:37:35;;;;;;;14.07;11.60;;;;;;;0.85;86.14;100671.56;5081877;28;20502;-68
2022/04/11 02:40:02;;;;;;;14.87;11.80;;;;;;;0.82;86.10;100663.81;5081849;28;20444;-67
2022/04/11 02:42:29;;;;;;;15.20;11.57;;;;;;;0.77;86.11;100665.78;5062057;28;20493;-67
2022/04/11 02:44:57;;;;;;;13.40;10.43;;;;;;;0.76;86.01;100671.94;5075023;28;20483;-67
2022/04/11 02:47:25;;;;;;;16.77;11.97;;;;;;;0.73;86.07;100667.69;5080642;28;20460;-67
2022/04/11 02:49:51;;;;;;;12.63;10.40;;;;;;;0.81;86.29;100666.50;5080396;28;20486;-67
2022/04/11 02:52:18;;;;;;;13.97;11.07;;;;;;;0.93;86.13;100665.94;5081284;28;20480;-67
2022/04/11 02:54:45;;;;;;;11.67;10.10;;;;;;;0.80;86.13;100665.66;5081556;28;20475;-67
2022/04/11 02:57:11;;;;;;;11.57;9.87;;;;;;;0.83;86.48;100667.28;5080567;28;20501;-67
2022/04/11 02:59:38;;;;;;;11.60;10.40;;;;;;;0.83;86.33;100668.13;5081220;28;20448;-67
2022/04/11 03:02:05;;;;;;;13.43;11.27;;;;;;;0.83;86.40;100659.38;5079861;28;20543;-67
2022/04/11 03:04:34;;;;;;;19.90;10.93;;;;;;;0.80;86.54;100659.50;5074244;28;20975;-67
2022/04/11 03:07:00;;;;;;;14.80;11.57;;;;;;;0.90;86.45;100651.16;5080598;28;20501;-67
2022/04/11 03:09:27;;;;;;;12.93;10.50;;;;;;;0.72;86.41;100644.91;5081721;28;20454;-67
2022/04/11 03:11:53;;;;;;;16.73;11.53;;;;;;;0.74;86.24;100650.13;5081137;28;20471;-67
2022/04/11 03:14:20;;;;;;;14.47;11.00;;;;;;;0.69;86.12;100649.47;5081544;28;20511;-67
2022/04/11 03:16:47;;;;;;;10.70;9.60;;;;;;;0.61;86.11;100647.19;5080019;28;21002;-67
2022/04/11 03:19:13;;;;;;;12.53;9.40;;;;;;;0.74;86.38;100645.69;5079780;28;20456;-67
2022/04/11 03:21:42;;;;;;;12.77;10.30;;;;;;;0.95;86.17;100650.94;5080118;28;20475;-67
2022/04/11 03:24:11;;;;;;;13.23;9.80;;;;;;;0.95;85.73;100643.03;5081017;28;20437;-67
2022/04/11 03:26:38;;;;;;;13.80;10.60;;;;;;;0.97;85.64;100648.22;5079991;28;20480;-67
2022/04/11 03:29:04;;;;;;;14.77;10.47;;;;;;;0.91;85.53;100654.63;5079462;28;20802;-68
2022/04/11 03:31:31;;;;;;;13.27;10.77;;;;;;;0.89;85.61;100652.06;5079393;28;20476;-67
2022/04/11 03:34:01;;;;;;;14.20;10.67;;;;;;;0.80;85.62;100647.22;5079804;28;20507;-67
2022/04/11 03:36:29;;;;;;;14.80;11.10;;;;;;;0.77;85.62;100654.41;5080472;28;20480;-67
2022/04/11 03:38:57;;;;;;;14.90;11.47;;;;;;;0.67;85.67;100660.06;5080606;28;20478;-66
2022/04/11 03:41:26;;;;;;;14.60;11.10;;;;;;;0.76;86.04;100656.16;5079852;28;20502;-67
2022/04/11 03:43:53;;;;;;;11.93;10.33;;;;;;;0.85;85.64;100655.78;5080459;28;20486;-66
2022/04/11 03:46:19;;;;;;;14.45;11.30;;;;;;;0.81;85.74;100655.97;5075007;28;20472;-67
2022/04/11 03:48:46;;;;;;;13.60;10.17;;;;;;;0.70;85.57;100662.56;5076120;28;20210;-67
2022/04/11 03:51:13;;;;;;;14.40;10.93;;;;;;;0.64;85.71;100665.44;5063472;28;20550;-67
2022/04/11 03:53:39;;;;;;;12.23;10.20;;;;;;;0.65;85.77;100663.69;5071686;28;20444;-67
2022/04/11 03:56:07;;;;;;;12.17;10.00;;;;;;;0.73;85.79;100664.22;5079661;28;20488;-67
2022/04/11 03:58:35;;;;;;;14.20;10.40;;;;;;;0.68;85.61;100669.66;5079695;28;20506;-68
2022/04/11 04:01:01;;;;;;;13.37;10.53;;;;;;;0.70;85.87;100667.81;5072864;28;20483;-66
2022/04/11 04:03:28;;;;;;;18.90;10.87;;;;;;;0.79;85.79;100666.56;5080056;28;20524;-67
2022/04/11 04:05:55;;;;;;;12.90;10.10;;;;;;;0.75;85.81;100670.25;5079931;28;20494;-67
2022/04/11 04:08:22;;;;;;;12.97;10.70;;;;;;;0.85;86.11;100665.44;5080603;28;20452;-67
2022/04/11 04:10:48;;;;;;;13.33;11.17;;;;;;;0.92;85.87;100666.84;5073052;28;20502;-67
2022/04/11 04:13:17;;;;;;;13.57;11.23;;;;;;;0.97;85.80;100669.28;5061596;28;20429;-67
2022/04/11 04:15:44;;;;;;;12.07;10.50;;;;;;;0.92;85.63;100669.50;5071866;28;20538;-68
2022/04/11 04:18:11;;;;;;;11.40;10.20;;;;;;;0.88;85.71;100668.78;5061131;28;20497;-67
2022/04/11 04:20:38;;;;;;;10.47;9.17;;;;;;;0.92;86.06;100661.59;5060260;28;20464;-67
2022/04/11 04:23:05;;;;;;;18.13;10.27;;;;;;;0.99;86.02;100664.81;5076937;28;20467;-67
2022/04/11 04:25:34;;;;;;;11.27;9.10;;;;;;;1.08;85.79;100661.78;5071000;28;20475;-67
2022/04/11 04:28:01;;;;;;;15.00;9.87;;;;;;;1.06;85.67;100669.75;5071364;28;21021;-68
2022/04/11 04:30:29;;;;;;;13.67;8.77;;;;;;;1.15;85.50;100663.19;5067867;28;20491;-67
2022/04/11 04:32:56;;;;;;;11.50;9.27;;;;;;;1.06;85.46;100661.84;5077903;28;20480;-67
2022/04/11 04:35:23;;;;;;;12.13;10.00;;;;;;;1.00;85.40;100671.78;5074140;28;20460;-67
2022/04/11 04:37:50;;;;;;;12.93;9.57;;;;;;;0.96;85.57;100668.44;5071484;28;20456;-67
2022/04/11 04:40:16;;;;;;;13.33;9.40;;;;;;;0.97;85.08;100674.56;5057574;28;20448;-67
2022/04/11 04:42:43;;;;;;;12.23;9.50;;;;;;;0.94;85.33;100672.94;5058320;28;20472;-68
2022/04/11 04:45:10;;;;;;;10.03;8.90;;;;;;;1.09;84.88;100669.63;5060313;28;20511;-66
2022/04/11 04:47:38;;;;;;;13.63;10.57;;;;;;;1.14;84.74;100664.13;5074425;28;20488;-66
2022/04/11 04:50:06;;;;;;;14.00;10.27;;;;;;;1.22;84.63;100671.69;5060638;28;20488;-66
2022/04/11 04:52:33;;;;;;;13.80;11.47;;;;;;;1.12;84.75;100664.19;5058066;28;20745;-66
2022/04/11 04:54:59;;;;;;;17.07;11.40;;;;;;;1.22;84.93;100669.06;5059899;28;20495;-66
2022/04/11 04:57:26;;;;;;;13.17;10.97;;;;;;;1.54;84.82;100679.84;5058279;28;20869;-66
2022/04/11 04:59:53;;;;;;;15.03;11.40;;;;;;;1.80;84.72;100686.53;5077578;28;20440;-66
2022/04/11 05:02:19;;;;;;;13.33;11.00;;;;;;;1.89;83.64;100667.59;5075371;28;20471;-66
2022/04/11 05:04:48;;;;;;;17.03;12.07;;;;;;;2.39;82.55;100673.94;5058885;28;21011;-66
2022/04/11 05:07:14;;;;;;;18.00;10.33;;;;;;;2.50;81.61;100670.75;5059392;28;20480;-66
2022/04/11 05:09:41;;;;;;;12.10;10.43;;;;;;;2.76;80.47;100677.31;5075432;28;20517;-66
2022/04/11 05:12:08;;;;;;;13.43;10.70;;;;;;;2.89;79.79;100667.84;5057947;28;20491;-66
2022/04/11 05:14:35;;;;;;;12.50;10.47;;;;;;;3.02;78.58;100670.66;5078388;28;20444;-66
2022/04/11 05:17:01;;;;;;;13.63;10.47;;;;;;;2.87;77.85;100668.88;5077910;28;20559;-66
2022/04/11 05:19:28;;;;;;;13.00;10.83;;;;;;;2.99;77.86;100671.69;5078051;28;20554;-67
2022/04/11 05:21:56;;;;;;;12.30;9.87;;;;;;;3.28;77.31;100668.41;5078330;28;20464;-68
2022/04/11 05:24:23;;;;;;;11.87;10.53;;;;;;;3.96;77.09;100665.50;5043609;28;20442;-68
2022/04/11 05:26:50;;;;;;;12.27;9.67;;;;;;;4.52;73.66;100660.47;5045535;28;20479;-67
2022/04/11 05:29:16;;;;;;;10.37;9.13;;;;;;;5.82;71.61;100658.59;5052228;28;20484;-67
2022/04/11 05:31:43;;;;;;;10.20;8.93;;;;;;;6.47;67.24;100667.59;5067923;28;20550;-67
2022/04/11 05:34:10;;;;;;;13.53;8.67;;;;;;;6.96;63.09;100657.13;5070557;28;20680;-67
2022/04/11 05:36:36;;;;;;;7.90;6.50;;;;;;;8.18;61.47;100664.31;5073192;28;20499;-67
2022/04/11 05:39:04;;;;;;;7.17;6.47;;;;;;;8.65;57.21;100670.53;5060721;28;20532;-67
2022/04/11 05:41:34;;;;;;;10.10;6.30;;;;;;;9.75;53.45;100667.25;5046509;28;20469;-67
2022/04/11 05:44:01;;;;;;;9.33;5.00;;;;;;;10.41;49.62;100671.66;5054115;28;20544;-67
2022/04/11 05:46:27;;;;;;;5.80;5.03;;;;;;;10.05;49.36;100674.59;5080906;28;21012;-67
2022/04/11 05:48:54;;;;;;;6.10;5.07;;;;;;;9.64;50.08;100667.28;5061591;28;20457;-68
2022/04/11 05:51:20;;;;;;;7.50;4.77;;;;;;;10.41;49.23;100669.81;5044141;28;20473;-68
2022/04/11 05:53:48;;;;;;;8.80;4.70;;;;;;;10.73;48.40;100671.63;5042099;28;20423;-68
2022/04/11 05:56:16;;;;;;;7.73;5.17;;;;;;;9.08;52.60;100678.81;5041321;28;20493;-67
2022/04/11 05:58:43;;;;;;;6.13;5.53;;;;;;;6.81;57.89;100683.91;5042148;28;20457;-67
2022/04/11 06:01:10;;;;;;;7.67;5.37;;;;;;;6.75;60.00;100675.41;5077721;28;20493;-67
2022/04/11 06:03:38;;;;;;;5.37;4.77;;;;;;;6.28;61.91;100674.16;5075063;28;20475;-67
2022/04/11 06:06:05;;;;;;;7.87;5.13;;;;;;;7.44;60.07;100669.69;5061244;28;20476;-67
2022/04/11 06:08:31;;;;;;;5.80;5.00;;;;;;;8.21;58.11;100677.41;5060909;28;20452;-67
2022/04/11 06:10:58;;;;;;;5.07;4.57;;;;;;;10.05;52.25;100679.94;5061136;28;20481;-68
2022/04/11 06:13:26;;;;;;;6.30;5.10;;;;;;;11.45;47.26;100670.66;5079550;28;20501;-66
2022/04/11 06:15:54;;;;;;;6.13;4.87;;;;;;;11.50;46.97;100672.94;5081360;28;20505;-66
2022/04/11 06:18:21;;;;;;;6.20;5.10;;;;;;;11.44;46.35;100671.66;5059383;28;20479;-66
2022/04/11 06:20:49;;;;;;;6.40;4.50;;;;;;;10.34;48.93;100676.66;5060271;28;21176;-66
2022/04/11 06:23:16;;;;;;;5.20;4.30;;;;;;;10.81;48.30;100679.81;5063512;28;20939;-66
2022/04/11 06:25:43;;;;;;;5.30;4.50;;;;;;;11.53;45.80;100674.50;5060757;28;20479;-65
2022/04/11 06:28:09;;;;;;;5.33;4.40;;;;;;;10.97;47.24;100678.50;5061837;28;20483;-66
2022/04/11 06:30:38;;;;;;;6.00;5.10;;;;;;;11.10;47.58;100679.13;5060971;28;20521;-66
2022/04/11 06:33:04;;;;;;;5.50;4.57;;;;;;;11.88;44.19;100680.22;5059919;28;20488;-66
2022/04/11 06:35:31;;;;;;;6.27;4.87;;;;;;;12.16;43.85;100675.06;5060253;28;20461;-66
2022/04/11 06:37:58;;;;;;;5.77;4.70;;;;;;;11.43;45.66;100677.16;5052763;28;20884;-66
2022/04/11 06:40:27;;;;;;;5.27;4.60;;;;;;;10.76;46.89;100665.97;5044083;28;20446;-66
2022/04/11 06:42:54;;;;;;;9.03;4.70;;;;;;;10.67;47.99;100667.59;5059054;28;20445;-66
2022/04/11 06:45:20;;;;;;;8.87;5.20;;;;;;;9.89;49.47;100664.28;5054016;28;20509;-66
2022/04/11 06:47:51;;;;;;;7.00;4.80;;;;;;;9.80;49.66;100665.06;5040419;28;20493;-67
2022/04/11 06:50:18;;;;;;;7.20;5.40;;;;;;;9.66;50.30;100658.16;5056104;28;20476;-67
2022/04/11 06:52:45;;;;;;;8.50;5.33;;;;;;;9.87;50.65;100666.25;5045336;28;20481;-66
2022/04/11 06:55:11;;;;;;;5.40;4.90;;;;;;;10.21;49.94;100659.91;5039079;28;20452;-67
2022/04/11 06:57:38;;;;;;;10.23;5.73;;;;;;;10.09;50.14;100660.00;5040478;28;20485;-67
2022/04/11 07:00:06;;;;;;;6.73;4.70;;;;;;;9.93;51.05;100657.75;5041122;28;20491;-67
2022/04/11 07:02:33;;;;;;;7.33;5.00;;;;;;;10.45;49.21;100659.72;5054264;28;20450;-68
2022/04/11 07:05:02;;;;;;;6.00;4.97;;;;;;;10.64;49.19;100657.19;5059933;28;20453;-68
2022/04/11 07:07:29;;;;;;;5.77;4.90;;;;;;;10.69;48.36;100664.81;5060278;28;20476;-69
2022/04/11 07:09:56;;;;;;;5.30;4.90;;;;;;;10.48;49.14;100659.47;5059667;28;20445;-68
2022/04/11 07:12:23;;;;;;;7.63;4.70;;;;;;;10.96;48.39;100658.09;5059972;28;20485;-68
2022/04/11 07:14:51;;;;;;;8.00;5.67;;;;;;;12.08;46.05;100664.19;5044628;28;20472;-68
2022/04/11 07:17:18;;;;;;;6.80;4.87;;;;;;;11.69;46.08;100661.44;5038827;28;20482;-68
2022/04/11 07:19:45;;;;;;;8.93;5.00;;;;;;;12.39;45.23;100664.91;5040414;28;20458;-65
2022/04/11 07:22:13;;;;;;;5.33;4.60;;;;;;;12.71;44.10;100657.53;5039352;28;20477;-66
2022/04/11 07:24:41;;;;;;;5.43;4.43;;;;;;;13.58;41.35;100661.75;5039546;28;20434;-66
2022/04/11 07:27:07;;;;;;;6.17;4.47;;;;;;;14.44;38.92;100644.25;5039412;28;20481;-66
2022/04/11 07:29:34;;;;;;;7.83;5.30;;;;;;;12.95;43.51;100649.84;5053750;28;20456;-66
2022/04/11 07:32:01;;;;;;;5.00;4.07;;;;;;;14.64;41.21;100656.53;5059060;28;20488;-66
2022/04/11 07:34:27;;;;;;;6.80;5.40;;;;;;;13.62;42.36;100652.38;5059912;28;20461;-67
2022/04/11 07:36:54;;;;;;;4.97;4.30;;;;;;;14.31;40.13;100653.56;5057731;28;20472;-67
2022/04/11 07:39:23;;;;;;;6.77;4.83;;;;;;;14.59;40.18;100655.34;5038921;28;20610;-68
2022/04/11 07:41:50;;;;;;;5.37;4.30;;;;;;;14.74;39.29;100653.78;5038995;28;21039;-66
2022/04/11 07:44:17;;;;;;;4.63;3.83;;;;;;;14.42;40.32;100655.16;5039466;28;20466;-67
2022/04/11 07:46:43;;;;;;;5.20;4.10;;;;;;;15.35;38.53;100656.47;5056246;28;20489;-68
2022/04/11 07:49:10;;;;;;;5.60;4.70;;;;;;;15.77;38.20;100658.31;5058838;28;20515;-67
2022/04/11 07:51:37;;;;;;;5.60;4.37;;;;;;;16.48;35.40;100664.97;5059427;28;20530;-67
2022/04/11 07:54:03;;;;;;;6.37;4.20;;;;;;;16.54;36.45;100667.00;5058651;28;20484;-68
2022/04/11 07:56:32;;;;;;;4.57;4.10;;;;;;;16.30;36.52;100664.28;5058682;28;20485;-67
2022/04/11 07:58:58;;;;;;;6.80;3.60;;;;;;;17.29;34.02;100660.47;5059870;28;20452;-67
2022/04/11 08:01:27;;;;;;;5.80;4.10;;;;;;;16.93;34.67;100669.00;5058183;28;20483;-68
2022/04/11 08:03:54;;;;;;;5.20;3.43;;;;;;;17.82;33.46;100651.75;5058290;28;20461;-68
2022/04/11 08:06:20;;;;;;;4.13;3.63;;;;;;;18.49;31.59;100655.69;5058948;28;20500;-68
2022/04/11 08:08:47;;;;;;;6.63;4.00;;;;;;;19.30;30.18;100655.91;5058828;28;20967;-68
2022/04/11 08:11:14;;;;;;;7.00;3.80;;;;;;;19.37;30.52;100663.13;5058958;28;20492;-68
2022/04/11 08:13:43;;;;;;;6.30;4.30;;;;;;;16.38;34.40;100664.28;5059061;28;20494;-68
2022/04/11 08:16:11;;;;;;;4.07;3.40;;;;;;;16.50;34.83;100667.50;5057456;28;20567;-68
2022/04/11 08:18:38;;;;;;;5.77;4.03;;;;;;;17.96;32.71;100651.03;5059208;28;20911;-69
2022/04/11 08:21:05;;;;;;;8.50;3.33;;;;;;;16.86;34.26;100659.06;5058623;28;20461;-68
2022/04/11 08:23:35;;;;;;;5.57;3.90;;;;;;;19.12;30.70;100659.84;5058217;28;20429;-68
2022/04/11 08:26:02;;;;;;;5.27;3.73;;;;;;;18.56;30.80;100653.97;5060711;28;20495;-68
2022/04/11 08:28:28;;;;;;;5.83;3.23;;;;;;;18.75;30.81;100642.59;5058901;28;20452;-68
2022/04/11 08:30:56;;;;;;;5.07;3.80;;;;;;;19.85;29.71;100651.00;5057743;28;20793;-68
2022/04/11 08:33:23;;;;;;;3.70;3.40;;;;;;;18.84;30.62;100651.53;5057844;28;20484;-68
2022/04/11 08:35:50;;;;;;;7.23;3.80;;;;;;;18.61;29.98;100648.84;5058587;28;20472;-68
2022/04/11 08:38:16;;;;;;;3.77;3.30;;;;;;;17.14;32.19;100651.41;5057409;28;20484;-68
2022/04/11 08:40:43;;;;;;;5.33;3.70;;;;;;;15.90;33.28;100657.84;5068888;28;20785;-68
2022/04/11 08:43:11;;;;;;;5.03;3.83;;;;;;;15.48;35.33;100656.84;5056906;28;20490;-67
2022/04/11 08:45:38;;;;;;;4.17;3.77;;;;;;;15.76;34.24;100668.28;5045885;28;20507;-68
2022/04/11 08:48:07;;;;;;;6.93;4.60;;;;;;;15.76;35.24;100668.28;5058650;28;20452;-68
2022/04/11 08:50:33;;;;;;;3.83;3.53;;;;;;;15.15;34.91;100667.47;5057551;28;20530;-68
2022/04/11 08:53:00;;;;;;;4.07;3.67;;;;;;;14.94;36.08;100664.31;5057827;28;20516;-68
2022/04/11 08:55:26;;;;;;;6.73;3.70;;;;;;;14.68;35.97;100667.84;5067426;28;21049;-67
2022/04/11 08:57:54;;;;;;;6.70;3.83;;;;;;;15.34;35.77;100666.38;5072689;28;20441;-67
2022/04/11 09:00:21;;;;;;;5.47;3.63;;;;;;;15.84;33.27;100670.13;5057537;28;20475;-68
2022/04/11 09:02:48;;;;;;;6.60;3.57;;;;;;;17.60;30.61;100666.91;5058114;28;20467;-67
2022/04/11 09:05:22;;;;;;;7.60;4.00;;;;;;;15.63;33.28;100662.47;5057927;28;20578;-67
2022/04/11 09:07:50;;;;;;;5.87;3.83;;;;;;;17.08;32.13;100652.94;5066226;28;20452;-67
2022/04/11 09:10:21;;;;;;;5.13;4.00;;;;;;;16.56;31.88;100659.56;5078608;28;20439;-68
2022/04/11 09:12:48;;;;;;;9.03;4.17;;;;;;;16.20;34.28;100656.38;5069713;28;20476;-68
2022/04/11 09:15:17;;;;;;;7.00;4.87;;;;;;;17.74;30.66;100641.00;5058011;28;20453;-68
2022/04/11 09:17:45;;;;;;;5.60;3.83;;;;;;;20.32;26.10;100642.28;5072256;28;20482;-68
2022/04/11 09:20:14;;;;;;;5.33;3.90;;;;;;;21.30;24.68;100633.38;5072621;28;20432;-67
2022/04/11 09:22:42;;;;;;;6.07;3.37;;;;;;;22.50;24.11;100632.88;5061572;28;20888;-67
2022/04/11 09:25:10;;;;;;;5.03;4.10;;;;;;;19.32;25.97;100627.59;5062051;28;20478;-68
2022/04/11 09:27:37;;;;;;;6.57;4.53;;;;;;;19.21;25.66;100632.66;5062787;28;20452;-67
2022/04/11 09:30:22;;;;;;;7.07;5.03;;;;;;;19.33;24.88;100631.16;5071865;28;20463;-67
2022/04/11 09:33:01;;;;;;;8.53;4.80;;;;;;;19.91;24.67;100631.22;5069728;28;20743;-67
2022/04/11 09:35:29;;;;;;;6.53;4.50;;;;;;;21.90;22.60;100627.34;5061826;28;21029;-67
2022/04/11 09:38:12;;;;;;;5.17;4.20;;;;;;;20.93;23.67;100621.03;5060805;28;20456;-68
2022/04/11 09:40:40;;;;;;;5.90;4.30;;;;;;;21.14;23.47;100623.66;5061263;28;20502;-67
2022/04/11 09:43:10;;;;;;;5.30;4.80;;;;;;;19.42;23.27;100623.75;5061981;28;21104;-69
2022/04/11 09:45:48;;;;;;;5.80;5.20;;;;;;;20.18;20.94;100624.19;5060992;28;21022;-68
2022/04/11 09:48:19;;;;;;;7.60;4.70;;;;;;;19.97;21.69;100619.59;5062183;28;20526;-67
2022/04/11 09:50:46;;;;;;;7.40;4.70;;;;;;;19.22;22.15;100615.34;5060706;28;20571;-68
2022/04/11 09:53:15;;;;;;;5.73;5.10;;;;;;;18.70;22.87;100614.41;5061980;28;20495;-68
2022/04/11 09:55:44;;;;;;;6.70;4.90;;;;;;;19.31;23.07;100611.53;5079481;28;20482;-67
2022/04/11 09:58:11;;;;;;;7.20;5.43;;;;;;;19.03;23.52;100608.66;5063401;28;20894;-67
2022/04/11 10:00:39;;;;;;;6.90;4.40;;;;;;;18.75;23.14;100615.50;5061106;28;20475;-67
2022/04/11 10:03:06;;;;;;;7.33;4.70;;;;;;;20.04;22.25;100616.97;5060441;28;20534;-68
2022/04/11 10:05:34;;;;;;;7.97;5.47;;;;;;;20.87;21.44;100609.91;5060583;28;20460;-68
2022/04/11 10:08:01;;;;;;;5.83;4.67;;;;;;;20.11;21.17;100612.44;5079667;28;20451;-67
2022/04/11 10:10:30;;;;;;;8.53;5.17;;;;;;;20.41;20.98;100613.09;5064462;28;20487;-68
2022/04/11 10:12:57;;;;;;;7.30;5.03;;;;;;;18.74;22.56;100596.75;5061126;28;20496;-67
2022/04/11 10:15:24;;;;;;;5.30;4.70;;;;;;;20.54;22.73;100608.84;5060692;28;20445;-67
2022/04/11 10:17:51;;;;;;;14.57;11.10;;;;;;;20.43;22.04;100607.47;5061267;28;20461;-68
2022/04/11 10:20:28;;;;;;;6.77;4.73;;;;;;;19.71;21.66;100601.97;5077812;28;20450;-68
2022/04/11 10:22:58;;;;;;;5.33;4.70;;;;;;;20.42;22.52;100605.81;5073438;28;21175;-67
2022/04/11 10:25:25;;;;;;;8.90;5.23;;;;;;;20.58;22.69;100604.69;5060578;28;20480;-67
2022/04/11 10:28:18;;;;;;;6.40;4.90;;;;;;;20.62;22.10;100604.13;5060319;28;20525;-68
2022/04/11 10:30:45;;;;;;;7.00;4.63;;;;;;;21.89;20.59;100603.88;5054489;28;20536;-68
2022/04/11 10:33:12;;;;;;;5.70;4.47;;;;;;;21.69;20.55;100601.94;5069066;28;20519;-67
2022/04/11 10:35:43;;;;;;;5.60;4.53;;;;;;;21.50;19.47;100594.56;5059837;28;21061;-67
2022/04/11 10:38:12;;;;;;;6.50;4.37;;;;;;;20.43;21.38;100604.75;5060497;28;20492;-67
2022/04/11 10:40:41;;;;;;;6.67;4.47;;;;;;;19.54;21.56;100587.78;5060073;28;21041;-67
2022/04/11 10:43:16;;;;;;;8.40;5.00;;;;;;;19.02;22.47;100588.00;5062320;28;20960;-67
2022/04/11 10:45:45;;;;;;;7.33;5.10;;;;;;;18.98;22.91;100584.81;5080025;28;20467;-67
2022/04/11 10:48:13;;;;;;;5.90;5.30;;;;;;;18.57;23.75;100583.34;5069695;28;20486;-67
2022/04/11 10:50:40;;;;;;;6.83;5.13;;;;;;;19.20;22.35;100574.91;5059663;28;20912;-69
2022/04/11 10:53:25;;;;;;;8.03;4.87;;;;;;;19.24;24.08;100568.06;5060659;28;20472;-67
2022/04/11 10:55:57;;;;;;;5.30;4.67;;;;;;;20.46;22.69;100569.06;5065606;28;20475;-68
2022/04/11 10:58:40;;;;;;;6.80;4.70;;;;;;;20.26;21.09;100572.47;5077578;28;20463;-67
2022/04/11 11:01:08;;;;;;;7.73;4.53;;;;;;;19.67;22.21;100560.00;5069845;28;20464;-68
2022/04/11 11:03:35;;;;;;;5.67;4.83;;;;;;;19.69;22.61;100555.22;5060479;28;20965;-67
2022/04/11 11:06:17;;;;;;;6.33;5.20;;;;;;;18.98;22.27;100549.59;5059448;28;20467;-67
2022/04/11 11:08:44;;;;;;;6.80;4.20;;;;;;;18.88;23.77;100546.34;5070029;28;20489;-67
2022/04/11 11:11:27;;;;;;;6.60;5.23;;;;;;;19.22;23.62;100544.88;5064795;28;20478;-68
2022/04/11 11:13:56;;;;;;;6.80;5.60;;;;;;;19.02;23.68;100542.75;5040017;28;20706;-68
2022/04/11 11:16:38;;;;;;;6.60;4.40;;;;;;;18.59;24.16;100540.72;5044219;28;20485;-68
2022/04/11 11:19:17;;;;;;;11.00;4.67;;;;;;;18.75;23.83;100533.44;5059186;28;20924;-67
2022/04/11 11:22:14;;;;;;;5.50;4.47;;;;;;;17.36;25.02;100528.19;5049371;28;20464;-68
2022/04/11 11:25:15;;;;;;;6.93;5.57;;;;;;;16.93;25.71;100516.94;4978843;28;20512;-68
2022/04/11 11:27:44;;;;;;;7.10;5.20;;;;;;;18.27;25.02;100519.38;5038582;28;20481;-68